Latest Weather Observations for Smithville

IDN60801

Issued at 2:33 am EDT Tuesday 20 February 2018 (issued every 30 minutes, with the page automatically refreshed every 10 minutes)

About weather observations | Map of weather stations | Latest weather observations for NSW | Other Formats
Station Details ID: 046142 Name: SMITHVILLE AWS Lat: -30.07 Lon: 141.00 Height: 94.0 m
Data from the previous 72 hours. | See also: Recent months at Smithville
Date/Time
EDT
Temp
°C
App
Temp
°C
Dew
Point
°C
Rel
Hum
%
Delta-T
°C
Wind Press
QNH
hPa
Press
MSL
hPa
Rain since
9am
mm
Dir  Spd
km/h
Gust
km/h
Spd
kts
Gust
kts
20/02:30am 28.7 - 11.3 34 10.0 - - - - - - - 0.0
20/02:00am 29.1 - 11.2 33 10.3 - - - - - - - 0.0
20/01:30am 29.5 - 11.1 32 10.6 - - - - - - - 0.0
20/01:00am 29.7 - 10.3 30 11.0 - - - - - - - 0.0
20/12:30am 29.9 - 9.9 29 11.3 - - - - - - - 0.0
20/12:00am 30.7 - 10.1 28 11.7 - - - - - - - 0.0
 
Date/Time
EDT
Temp
°C
App
Temp
°C
Dew
Point
°C
Rel
Hum
%
Delta-T
°C
Wind Press
QNH
hPa
Press
MSL
hPa
Rain since
9am
mm
Dir  Spd
km/h
Gust
km/h
Spd
kts
Gust
kts
19/11:30pm 31.3 - 10.1 27 12.1 - - - - - - - 0.0
19/11:00pm 31.7 - 9.8 26 12.5 - - - - - - - 0.0
19/10:30pm 32.3 - 9.8 25 12.9 - - - - - - - 0.0
19/10:00pm 32.7 - 9.5 24 13.2 - - - - - - - 0.0
19/09:30pm 33.2 - 9.3 23 13.6 - - - - - - - 0.0
19/09:00pm 33.8 - 9.1 22 14.1 - - - - - - - 0.0
19/08:30pm 34.5 - 9.0 21 14.5 - - - - - - - 0.0
19/08:00pm 35.4 - 8.3 19 15.4 - - - - - - - 0.0
19/07:30pm 36.3 - 9.0 19 15.7 - - - - - - - 0.0
19/07:00pm 36.6 - 7.6 17 16.3 - - - - - - - 0.0
19/06:30pm 37.2 - 7.2 16 16.9 - - - - - - - 0.0
19/06:00pm 37.3 - 8.2 17 16.6 - - - - - - - 0.0
19/05:30pm 37.9 - 9.5 18 16.6 - - - - - - - 0.0
19/05:00pm 37.5 - 10.0 19 16.1 - - - - - - - 0.0
19/04:30pm 36.9 - 10.2 20 15.7 - - - - - - - 0.0
19/04:00pm 38.0 - 10.4 19 16.3 - - - - - - - 0.0
19/03:30pm 36.3 - 9.8 20 15.4 - - - - - - - 0.0
19/03:00pm 36.2 - 10.4 21 15.1 - - - - - - - 0.0
19/02:30pm 36.1 - 10.3 21 15.1 - - - - - - - 0.0
19/02:00pm 35.0 - 10.1 22 14.5 - - - - - - - 0.0
19/01:30pm 34.6 - 9.8 22 14.3 - - - - - - - 0.0
19/01:00pm 34.2 - 10.1 23 14.0 - - - - - - - 0.0
19/12:30pm 33.3 - 10.6 25 13.2 - - - - - - - 0.0
19/12:00pm 32.5 - 11.1 27 12.5 - - - - - - - 0.0
19/11:30am 31.9 - 10.6 27 12.3 - - - - - - - 0.0
19/11:00am 30.9 - 10.8 29 11.6 - - - - - - - 0.0
19/10:30am 30.8 - 11.7 31 11.2 - - - - - - - 0.0
19/10:00am 29.5 - 12.0 34 10.2 - - - - - - - 0.0
19/09:30am 28.4 - 12.3 37 9.4 - - - - - - - 0.0
19/09:00am 28.1 - 12.5 38 9.1 - - - - - - - 0.0
19/08:30am 27.5 - 11.5 37 9.2 - - - - - - - 0.0
19/08:00am 27.4 - 11.4 37 9.2 - - - - - - - 0.0
19/07:30am 27.0 - 10.7 36 9.2 - - - - - - - 0.0
19/07:00am 27.3 - 10.5 35 9.5 - - - - - - - 0.0
19/06:30am 27.6 - 10.3 34 9.8 - - - - - - - 0.0
19/06:00am 27.9 - 10.6 34 9.8 - - - - - - - 0.0
19/05:30am 27.9 - 10.6 34 9.8 - - - - - - - 0.0
19/05:00am 28.0 - 10.7 34 9.8 - - - - - - - 0.0
19/04:30am 28.1 - 10.3 33 10.1 - - - - - - - 0.0
19/04:00am 28.3 - 10.0 32 10.3 - - - - - - - 0.0
19/03:30am 28.7 - 10.4 32 10.4 - - - - - - - 0.0
19/03:00am 28.8 - 10.5 32 10.4 - - - - - - - 0.0
19/02:30am 28.4 - 11.0 34 10.0 - - - - - - - 0.0
19/02:00am 28.2 - 11.3 35 9.7 - - - - - - - 0.0
19/01:30am 28.7 - 10.8 33 10.2 - - - - - - - 0.0
19/01:00am 30.1 - 9.1 27 11.7 - - - - - - - 0.0
19/12:30am 30.4 - 8.7 26 12.1 - - - - - - - 0.0
19/12:00am 31.1 - 8.2 24 12.7 - - - - - - - 0.0
 
Date/Time
EDT
Temp
°C
App
Temp
°C
Dew
Point
°C
Rel
Hum
%
Delta-T
°C
Wind Press
QNH
hPa
Press
MSL
hPa
Rain since
9am
mm
Dir  Spd
km/h
Gust
km/h
Spd
kts
Gust
kts
18/11:30pm 31.4 - 8.4 24 12.8 - - - - - - - 0.0
18/11:00pm 32.1 - 8.4 23 13.2 - - - - - - - 0.0
18/10:30pm 33.2 - 7.9 21 14.1 - - - - - - - 0.0
18/10:00pm 36.1 - -0.3 10 18.1 - - - - - - - 0.0
18/09:30pm 35.0 - 0.2 11 17.3 - - - - - - - 0.0
18/09:00pm 36.0 - -0.4 10 18.0 - - - - - - - 0.0
18/08:30pm 37.0 - 0.4 10 18.5 - - - - - - - 0.0
18/08:00pm 38.7 - 0.2 9 19.6 - - - - - - - 0.0
18/07:30pm 39.6 - 0.9 9 20.0 - - - - - - - 0.0
18/07:00pm 40.4 - -0.2 8 20.7 - - - - - - - 0.0
18/06:30pm 41.0 - 0.3 8 21.0 - - - - - - - 0.0
18/06:00pm 41.2 - 0.4 8 21.1 - - - - - - - 0.0
18/05:30pm 40.9 - 0.2 8 21.0 - - - - - - - 0.0
18/05:00pm 41.4 - 0.5 8 21.2 - - - - - - - 0.0
18/04:30pm 40.8 - -1.7 7 21.3 - - - - - - - 0.0
18/04:00pm 41.1 - -1.5 7 21.4 - - - - - - - 0.0
18/03:30pm 40.8 - -1.7 7 21.3 - - - - - - - 0.0
18/03:00pm 40.5 - -0.1 8 20.8 - - - - - - - 0.0
18/02:30pm 39.9 - -0.5 8 20.5 - - - - - - - 0.0
18/02:00pm 39.5 - -0.8 8 20.3 - - - - - - - 0.0
18/01:30pm 39.1 - -1.1 8 20.1 - - - - - - - 0.0
18/01:00pm 39.2 - 0.6 9 19.8 - - - - - - - 0.0
18/12:30pm 39.1 - 0.5 9 19.8 - - - - - - - 0.0
18/12:00pm 37.9 - -0.4 9 19.2 - - - - - - - 0.0
18/11:30am 36.5 - 1.3 11 18.0 - - - - - - - 0.0
18/11:00am 36.3 - 1.2 11 17.9 - - - - - - - 0.0
18/10:30am 34.3 - 3.0 14 16.2 - - - - - - - 0.0
18/10:00am 32.8 - 3.7 16 15.1 - - - - - - - 0.0
18/09:30am 31.1 - 4.0 18 14.0 - - - - - - - 0.0
18/09:00am 27.9 - 4.2 22 12.1 - - - - - - - 0.0
18/08:30am 24.7 - 3.4 25 10.5 - - - - - - - 0.0
18/08:00am 22.7 - 3.8 29 9.2 - - - - - - - 0.0
18/07:30am 21.1 - 3.3 31 8.5 - - - - - - - 0.0
18/07:00am 21.1 - 2.9 30 8.6 - - - - - - - 0.0
18/06:30am 21.6 - 3.3 30 8.8 - - - - - - - 0.0
18/06:00am 21.0 - 2.8 30 8.6 - - - - - - - 0.0
18/05:30am 21.1 - 2.4 29 8.8 - - - - - - - 0.0
18/05:00am 21.6 - 2.8 29 8.9 - - - - - - - 0.0
18/04:30am 23.0 - 2.5 26 9.8 - - - - - - - 0.0
18/04:00am 24.2 - 2.4 24 10.5 - - - - - - - 0.0
18/03:30am 24.6 - 2.7 24 10.6 - - - - - - - 0.0
18/03:00am 23.8 - 2.0 24 10.4 - - - - - - - 0.0
18/02:30am 24.4 - 1.3 22 10.9 - - - - - - - 0.0
18/02:00am 24.6 - 1.5 22 10.9 - - - - - - - 0.0
18/01:30am 26.1 - 2.1 21 11.6 - - - - - - - 0.0
18/01:00am 26.2 - 2.2 21 11.6 - - - - - - - 0.0
18/12:30am 26.7 - 1.9 20 12.0 - - - - - - - 0.0
18/12:00am 27.3 - 1.7 19 12.4 - - - - - - - 0.0
 
Date/Time
EDT
Temp
°C
App
Temp
°C
Dew
Point
°C
Rel
Hum
%
Delta-T
°C
Wind Press
QNH
hPa
Press
MSL
hPa
Rain since
9am
mm
Dir  Spd
km/h
Gust
km/h
Spd
kts
Gust
kts
17/11:30pm 27.8 - 2.1 19 12.6 - - - - - - - 0.0
17/11:00pm 28.3 - 1.7 18 13.0 - - - - - - - 0.0
17/10:30pm 29.6 - 1.1 16 13.9 - - - - - - - 0.0
17/10:00pm 30.6 - 1.0 15 14.5 - - - - - - - 0.0
17/09:30pm 31.8 - 1.0 14 15.2 - - - - - - - 0.0
17/09:00pm 33.2 - 0.0 12 16.3 - - - - - - - 0.0
17/08:30pm 34.9 - 0.1 11 17.3 - - - - - - - 0.0
17/08:00pm 36.0 - -0.4 10 18.0 - - - - - - - 0.0
17/07:30pm 36.4 - -0.1 10 18.2 - - - - - - - 0.0
17/07:00pm 37.1 - -1.0 9 18.8 - - - - - - - 0.0
17/06:30pm 38.0 - -0.3 9 19.3 - - - - - - - 0.0
17/06:00pm 38.2 - -0.2 9 19.4 - - - - - - - 0.0
17/05:30pm 37.7 - -0.6 9 19.1 - - - - - - - 0.0
17/05:00pm 37.8 - -0.5 9 19.2 - - - - - - - 0.0
17/04:30pm 37.7 - -0.6 9 19.1 - - - - - - - 0.0
17/04:00pm 37.7 - -0.6 9 19.1 - - - - - - - 0.0
17/03:30pm 37.8 - 1.0 10 18.9 - - - - - - - 0.0
17/03:00pm 37.3 - 1.9 11 18.3 - - - - - - - 0.0
17/02:30pm 37.5 - 2.1 11 18.4 - - - - - - - 0.0
17/02:00pm 36.8 - 2.8 12 17.8 - - - - - - - 0.0
17/01:30pm 35.9 - 2.1 12 17.4 - - - - - - - 0.0
17/01:00pm 35.4 - 0.5 11 17.5 - - - - - - - 0.0
17/12:30pm 35.2 - 1.5 12 17.1 - - - - - - - 0.0
17/12:00pm 34.7 - 2.3 13 16.6 - - - - - - - 0.0
17/11:30am 34.8 - 2.3 13 16.7 - - - - - - - 0.0
17/11:00am 32.8 - 3.7 16 15.1 - - - - - - - 0.0
17/10:30am 31.1 - 4.0 18 14.0 - - - - - - - 0.0
17/10:00am 29.3 - 4.0 20 12.9 - - - - - - - 0.0
17/09:30am 27.8 - 4.2 22 12.0 - - - - - - - 0.0
17/09:00am 26.0 - 3.9 24 11.0 - - - - - - - 0.0
17/08:30am 24.2 - 4.0 27 10.0 - - - - - - - 0.0
17/08:00am 21.8 - 3.9 31 8.7 - - - - - - - 0.0
17/07:30am 20.0 - 3.7 34 7.8 - - - - - - - 0.0
17/07:00am 20.0 - 3.3 33 7.9 - - - - - - - 0.0
17/06:30am 20.3 - 3.5 33 8.0 - - - - - - - 0.0
17/06:00am 20.8 - 3.1 31 8.4 - - - - - - - 0.0
17/05:30am 21.8 - 3.0 29 9.0 - - - - - - - 0.0
17/05:00am 22.6 - 3.2 28 9.4 - - - - - - - 0.0
17/04:30am 23.3 - 3.3 27 9.7 - - - - - - - 0.0
17/04:00am 24.4 - 3.1 25 10.4 - - - - - - - 0.0
17/03:30am 25.2 - 3.2 24 10.8 - - - - - - - 0.0
17/03:00am 25.5 - 2.9 23 11.1 - - - - - - - 0.0

Other Formats:

Comma delimited format used in spreadsheet applications
http://www.bom.gov.au/fwo/IDN60801/IDN60801.94796.axf

JavaScript Object Notation format (JSON) in row-major order
http://www.bom.gov.au/fwo/IDN60801/IDN60801.94796.json